Terminal Aerodrome Forecast
Issued by NWS

Home | Current Version | Previous Version | Text Only | Print | Product List | Glossary On
Versions: 1 2 3 4 5 6 7 8 9 10 11 12 13 14
373
FTUS42 KJAX 121021 AAA
TAFVQQ
TAF AMD
KVQQ 121021Z 1210/1306 21006KT P6SM BKN035
     FM121500 24015G23KT P6SM FEW040 SCT250
     FM130000 25007KT P6SM SCT050 SCT250=

USA.gov is the U.S. government's official web portal to all federal, state and local government web resources and services.